createdAt,value
2018-05-26T00:02:06.857Z,6.50
2018-05-26T00:04:33.079Z,6.73
2018-05-26T00:07:00.064Z,8.23
2018-05-26T00:09:26.278Z,7.53
2018-05-26T00:11:53.239Z,9.13
2018-05-26T00:14:19.627Z,9.50
2018-05-26T00:16:45.839Z,9.10
2018-05-26T00:19:12.060Z,9.10
2018-05-26T00:21:39.045Z,9.90
2018-05-26T00:24:05.241Z,9.47
2018-05-26T00:26:31.457Z,9.57
2018-05-26T00:28:57.699Z,8.30
2018-05-26T00:31:24.027Z,8.00
2018-05-26T00:33:50.261Z,8.77
2018-05-26T00:36:16.503Z,10.07
2018-05-26T00:38:42.719Z,9.40
2018-05-26T00:41:08.950Z,8.33
2018-05-26T00:43:35.195Z,9.27
2018-05-26T00:46:01.401Z,9.33
2018-05-26T00:48:27.604Z,8.70
2018-05-26T00:50:53.851Z,9.87
2018-05-26T00:53:20.096Z,9.03
2018-05-26T00:55:46.322Z,8.83
2018-05-26T00:58:12.664Z,9.00
2018-05-26T01:00:39.617Z,10.87
2018-05-26T01:03:05.848Z,8.83
2018-05-26T01:05:32.120Z,10.27
2018-05-26T01:07:58.340Z,9.73
2018-05-26T01:10:24.566Z,10.27
2018-05-26T01:12:50.814Z,9.77
2018-05-26T01:15:17.032Z,11.17
2018-05-26T01:17:43.252Z,11.73
2018-05-26T01:20:10.283Z,13.50
2018-05-26T01:22:36.500Z,11.00
2018-05-26T01:25:02.753Z,10.20
2018-05-26T01:27:29.009Z,10.63
2018-05-26T01:32:34.750Z,10.77
2018-05-26T01:35:00.984Z,9.90
2018-05-26T01:37:27.951Z,10.47
2018-05-26T01:39:54.205Z,9.20
2018-05-26T01:42:20.418Z,10.17
2018-05-26T01:44:47.392Z,10.87
2018-05-26T01:47:13.805Z,9.97
2018-05-26T01:49:40.785Z,10.47
2018-05-26T01:52:06.999Z,10.70
2018-05-26T01:54:33.225Z,11.03
2018-05-26T01:56:59.435Z,9.30
2018-05-26T01:59:25.643Z,9.20
2018-05-26T02:01:52.638Z,9.17
2018-05-26T02:04:18.841Z,9.37
2018-05-26T02:06:45.790Z,8.70
2018-05-26T02:09:12.766Z,9.07
2018-05-26T02:11:38.973Z,8.77
2018-05-26T02:14:05.195Z,9.03
2018-05-26T02:16:31.429Z,8.27
2018-05-26T02:18:57.641Z,8.97
2018-05-26T02:21:23.851Z,7.80
2018-05-26T02:23:50.842Z,7.97
2018-05-26T02:26:17.238Z,8.23
2018-05-26T02:28:43.447Z,9.80
2018-05-26T02:31:09.731Z,8.30
2018-05-26T02:33:36.683Z,8.17
2018-05-26T02:36:03.681Z,8.13
2018-05-26T02:38:29.915Z,8.90
2018-05-26T02:40:56.124Z,8.60
2018-05-26T02:43:23.085Z,8.03
2018-05-26T02:45:50.057Z,8.10
2018-05-26T02:48:16.304Z,8.60
2018-05-26T02:50:43.237Z,8.57
2018-05-26T02:53:09.481Z,8.30
2018-05-26T02:55:36.421Z,7.83
2018-05-26T02:58:02.652Z,9.10
2018-05-26T03:00:28.906Z,7.67
2018-05-26T03:02:55.131Z,7.67
2018-05-26T03:05:27.364Z,8.60
2018-05-26T03:07:59.738Z,8.93
2018-05-26T03:10:31.950Z,9.27
2018-05-26T03:13:04.294Z,9.90
2018-05-26T03:15:31.279Z,10.27
2018-05-26T03:18:01.548Z,9.70
2018-05-26T03:20:27.786Z,10.73
2018-05-26T03:22:54.011Z,10.00
2018-05-26T03:25:20.254Z,10.00
2018-05-26T03:27:46.496Z,10.23
2018-05-26T03:30:12.738Z,10.67
2018-05-26T03:32:38.942Z,11.40
2018-05-26T03:35:05.309Z,12.07
2018-05-26T03:37:31.525Z,10.93
2018-05-26T03:39:57.729Z,10.10
2018-05-26T03:42:23.961Z,10.47
2018-05-26T03:44:50.187Z,9.40
2018-05-26T03:47:16.403Z,10.90
2018-05-26T03:49:42.652Z,9.53
2018-05-26T03:52:08.893Z,8.87
2018-05-26T03:54:47.333Z,10.30
2018-05-26T03:57:25.601Z,8.83
2018-05-26T04:02:44.137Z,9.27
2018-05-26T04:05:10.417Z,9.50
2018-05-26T04:07:36.638Z,10.03
2018-05-26T04:10:02.901Z,10.90
2018-05-26T04:12:29.393Z,9.67
2018-05-26T04:14:55.589Z,9.60
2018-05-26T04:17:21.805Z,9.63
2018-05-26T04:19:48.051Z,11.20
2018-05-26T04:22:14.247Z,12.70
2018-05-26T04:24:40.440Z,11.63
2018-05-26T04:27:06.824Z,11.73
2018-05-26T04:29:33.107Z,13.30
2018-05-26T04:31:59.317Z,12.20
2018-05-26T04:34:25.558Z,13.20
2018-05-26T04:36:51.808Z,12.90
2018-05-26T04:39:18.009Z,13.13
2018-05-26T04:41:44.994Z,12.50
2018-05-26T04:44:11.194Z,11.53
2018-05-26T04:46:37.398Z,13.10
2018-05-26T04:49:03.640Z,13.17
2018-05-26T04:51:29.866Z,12.20
2018-05-26T04:53:56.100Z,13.53
2018-05-26T04:56:22.330Z,13.33
2018-05-26T04:58:48.550Z,12.10
2018-05-26T05:01:15.498Z,12.30
2018-05-26T05:03:41.747Z,11.27
2018-05-26T05:06:08.720Z,11.70
2018-05-26T05:08:34.947Z,12.00
2018-05-26T05:11:01.943Z,11.97
2018-05-26T05:13:28.155Z,11.63
2018-05-26T05:15:55.106Z,11.40
2018-05-26T05:18:22.099Z,11.13
2018-05-26T05:20:48.338Z,10.67
2018-05-26T05:23:14.551Z,10.60
2018-05-26T05:25:40.808Z,11.37
2018-05-26T05:28:07.025Z,11.47
2018-05-26T05:30:34.018Z,12.53
2018-05-26T05:33:00.273Z,11.60
2018-05-26T05:35:26.502Z,11.43
2018-05-26T05:37:52.730Z,11.50
2018-05-26T05:40:18.982Z,11.10
2018-05-26T05:42:45.206Z,11.23
2018-05-26T05:45:11.406Z,9.20
2018-05-26T05:47:37.636Z,11.90
2018-05-26T05:50:03.845Z,10.37
2018-05-26T05:52:30.060Z,10.60
2018-05-26T05:54:56.293Z,8.60
2018-05-26T05:57:22.520Z,9.03
2018-05-26T05:59:49.488Z,8.40
2018-05-26T06:02:16.473Z,8.77
2018-05-26T06:04:42.685Z,8.30
2018-05-26T06:07:09.638Z,8.23
2018-05-26T06:09:37.118Z,9.60
2018-05-26T06:12:03.861Z,8.70
2018-05-26T06:14:30.874Z,8.30
2018-05-26T06:16:57.078Z,8.17
2018-05-26T06:19:23.312Z,8.67
2018-05-26T06:21:49.577Z,8.13
2018-05-26T06:24:15.777Z,8.70
2018-05-26T06:26:42.769Z,8.10
2018-05-26T06:29:09.031Z,7.87
2018-05-26T06:31:35.273Z,7.57
2018-05-26T06:34:01.506Z,8.03
2018-05-26T06:36:27.761Z,8.53
2018-05-26T06:38:53.999Z,8.27
2018-05-26T06:41:20.219Z,8.13
2018-05-26T06:43:46.460Z,8.37
2018-05-26T06:46:12.659Z,8.10
2018-05-26T06:48:38.877Z,7.70
2018-05-26T06:51:05.127Z,8.07
2018-05-26T06:53:31.335Z,8.70
2018-05-26T06:55:57.541Z,8.20
2018-05-26T06:58:23.775Z,9.37
2018-05-26T07:00:50.026Z,9.10
2018-05-26T07:03:16.245Z,8.60
2018-05-26T07:05:43.224Z,8.67
2018-05-26T07:08:09.411Z,8.80
2018-05-26T07:10:35.615Z,9.30
2018-05-26T07:13:01.862Z,8.80
2018-05-26T07:15:28.071Z,9.60
2018-05-26T07:17:54.307Z,9.13
2018-05-26T07:20:20.563Z,8.50
2018-05-26T07:22:46.778Z,7.53
2018-05-26T07:25:13.744Z,8.60
2018-05-26T07:27:40.024Z,7.03
2018-05-26T07:30:06.255Z,7.13
2018-05-26T07:32:32.455Z,7.80
2018-05-26T07:34:59.464Z,6.60
2018-05-26T07:37:25.685Z,7.37
2018-05-26T07:39:51.899Z,7.93
2018-05-26T07:42:18.880Z,7.50
2018-05-26T07:44:45.110Z,8.50
2018-05-26T07:47:11.382Z,9.70
2018-05-26T07:49:37.596Z,9.60
2018-05-26T07:52:03.834Z,11.07
2018-05-26T07:54:30.785Z,11.70
2018-05-26T07:56:58.048Z,10.70
2018-05-26T07:59:25.010Z,12.30
2018-05-26T08:01:51.990Z,11.73
2018-05-26T08:04:18.241Z,13.97
2018-05-26T08:06:44.468Z,14.53
2018-05-26T08:09:11.430Z,15.43
2018-05-26T08:11:37.684Z,15.60
2018-05-26T08:14:03.915Z,15.60
2018-05-26T08:16:30.134Z,15.40
2018-05-26T08:18:56.386Z,15.23
2018-05-26T08:21:22.616Z,15.50
2018-05-26T08:23:48.832Z,15.00
2018-05-26T08:26:15.086Z,16.80
2018-05-26T08:28:41.316Z,17.90
2018-05-26T08:31:08.368Z,16.27
2018-05-26T08:33:34.628Z,19.70
2018-05-26T08:36:01.576Z,18.33
2018-05-26T08:38:27.790Z,17.30
2018-05-26T08:40:54.056Z,19.23
2018-05-26T08:43:21.013Z,18.53
2018-05-26T08:45:47.988Z,19.17
2018-05-26T08:48:14.241Z,17.60
2018-05-26T08:50:40.466Z,18.17
2018-05-26T08:53:06.712Z,18.80
2018-05-26T08:55:32.971Z,18.63
2018-05-26T08:57:59.187Z,18.10
2018-05-26T09:00:26.134Z,18.00
2018-05-26T09:02:53.145Z,17.23
2018-05-26T09:05:19.374Z,17.90
2018-05-26T09:07:45.597Z,17.40
2018-05-26T09:10:11.858Z,18.83
2018-05-26T09:12:38.090Z,17.47
2018-05-26T09:15:04.328Z,17.67
2018-05-26T09:17:30.568Z,17.70
2018-05-26T09:19:56.797Z,17.37
2018-05-26T09:22:23.010Z,17.97
2018-05-26T09:24:50.024Z,15.93
2018-05-26T09:27:16.250Z,16.50
2018-05-26T09:29:42.518Z,15.17
2018-05-26T09:32:08.921Z,14.83
2018-05-26T09:34:35.153Z,14.53
2018-05-26T09:37:01.391Z,14.83
2018-05-26T09:39:27.719Z,15.93
2018-05-26T09:41:53.960Z,13.37
2018-05-26T09:44:20.929Z,14.00
2018-05-26T09:46:47.911Z,13.50
2018-05-26T09:49:14.119Z,13.63
2018-05-26T09:51:41.091Z,12.80
2018-05-26T09:54:07.319Z,13.13
2018-05-26T09:56:33.538Z,10.20
2018-05-26T09:58:59.762Z,11.87
2018-05-26T10:01:26.014Z,12.27
2018-05-26T10:03:52.233Z,11.60
2018-05-26T10:06:18.467Z,11.67
2018-05-26T10:08:44.723Z,9.90
2018-05-26T10:11:10.933Z,9.73
2018-05-26T10:13:37.147Z,8.87
2018-05-26T10:16:04.161Z,8.13
2018-05-26T10:18:30.391Z,7.87
2018-05-26T10:20:56.589Z,7.33
2018-05-26T10:23:22.828Z,7.60
2018-05-26T10:25:49.779Z,8.43
2018-05-26T10:28:16.008Z,8.30
2018-05-26T10:30:42.377Z,7.80
2018-05-26T10:33:08.587Z,7.40
2018-05-26T10:35:35.595Z,7.17
2018-05-26T10:38:01.815Z,6.10
2018-05-26T10:40:28.030Z,6.73
2018-05-26T10:42:55.007Z,8.77
2018-05-26T10:45:34.476Z,8.27
2018-05-26T10:48:00.703Z,6.60
2018-05-26T10:50:26.914Z,6.40
2018-05-26T10:52:53.147Z,5.57
2018-05-26T10:55:19.378Z,5.10
2018-05-26T10:57:45.600Z,5.00
2018-05-26T11:00:11.976Z,4.17
2018-05-26T11:02:38.184Z,4.43
2018-05-26T11:05:04.416Z,3.90
2018-05-26T11:07:31.443Z,3.90
2018-05-26T11:09:58.400Z,3.60
2018-05-26T11:12:24.622Z,3.77
2018-05-26T11:14:51.602Z,3.63
2018-05-26T11:17:17.851Z,3.73
2018-05-26T11:19:44.118Z,3.97
2018-05-26T11:22:10.361Z,4.20
2018-05-26T11:24:36.712Z,3.87
2018-05-26T11:27:02.813Z,4.00
2018-05-26T11:29:29.135Z,4.17
2018-05-26T11:31:56.116Z,4.67
2018-05-26T11:34:22.317Z,3.50
2018-05-26T11:36:48.559Z,3.83
2018-05-26T11:39:14.782Z,3.83
2018-05-26T11:41:40.995Z,4.47
2018-05-26T11:44:07.453Z,4.00
2018-05-26T11:46:33.669Z,3.77
2018-05-26T11:48:59.885Z,3.50
2018-05-26T11:51:26.131Z,3.20
2018-05-26T11:53:52.373Z,3.10
2018-05-26T11:56:18.603Z,3.10
2018-05-26T11:58:45.597Z,3.53
2018-05-26T12:01:14.351Z,2.67
2018-05-26T12:03:41.305Z,3.53
2018-05-26T12:06:08.621Z,3.13
2018-05-26T12:08:34.892Z,3.20
2018-05-26T12:11:01.109Z,2.60
2018-05-26T12:13:27.365Z,3.30
2018-05-26T12:15:53.591Z,2.53
2018-05-26T12:18:19.814Z,3.20
2018-05-26T12:20:46.049Z,2.80
2018-05-26T12:23:12.267Z,2.70
2018-05-26T12:25:39.226Z,2.70
2018-05-26T12:28:06.207Z,2.83
2018-05-26T12:30:32.492Z,2.97
2018-05-26T12:32:58.717Z,2.30
2018-05-26T12:35:24.970Z,2.70
2018-05-26T12:37:51.186Z,3.00
2018-05-26T12:40:17.402Z,3.27
2018-05-26T12:42:43.649Z,3.00
2018-05-26T12:45:09.997Z,2.67
2018-05-26T12:47:36.234Z,2.60
2018-05-26T12:50:02.508Z,3.17
2018-05-26T12:52:28.746Z,3.27
2018-05-26T12:54:54.970Z,3.07
2018-05-26T12:57:21.318Z,2.70
2018-05-26T12:59:47.584Z,2.60
2018-05-26T13:02:13.792Z,3.33
2018-05-26T13:04:40.034Z,2.40
2018-05-26T13:07:06.248Z,2.50
2018-05-26T13:09:32.460Z,2.17
2018-05-26T13:11:58.717Z,2.80
2018-05-26T13:14:24.923Z,2.63
2018-05-26T13:16:51.138Z,2.33
2018-05-26T13:19:17.381Z,2.53
2018-05-26T13:21:43.616Z,2.47
2018-05-26T13:24:09.861Z,2.30
2018-05-26T13:26:36.243Z,2.17
2018-05-26T13:29:02.522Z,2.20
2018-05-26T13:31:28.805Z,2.20
2018-05-26T13:33:55.191Z,2.30
2018-05-26T13:36:21.444Z,2.30
2018-05-26T13:38:47.661Z,2.33
2018-05-26T13:41:13.891Z,2.30
2018-05-26T13:43:40.111Z,2.93
2018-05-26T13:46:06.579Z,2.70
2018-05-26T13:48:32.865Z,2.60
2018-05-26T13:50:59.098Z,2.57
2018-05-26T13:53:25.362Z,1.90
2018-05-26T13:55:51.650Z,2.03
2018-05-26T13:58:17.839Z,2.10
2018-05-26T14:00:44.040Z,2.60
2018-05-26T14:03:11.137Z,2.73
2018-05-26T14:05:37.393Z,2.57
2018-05-26T14:08:03.672Z,2.70
2018-05-26T14:10:30.785Z,2.60
2018-05-26T14:12:57.001Z,2.47
2018-05-26T14:15:23.228Z,2.60
2018-05-26T14:17:50.209Z,3.20
2018-05-26T14:20:16.423Z,2.50
2018-05-26T14:22:43.391Z,2.97
2018-05-26T14:25:09.639Z,3.60
2018-05-26T14:27:35.884Z,2.87
2018-05-26T14:30:02.160Z,2.93
2018-05-26T14:32:28.372Z,3.00
2018-05-26T14:34:54.580Z,2.50
2018-05-26T14:37:21.550Z,2.83
2018-05-26T14:39:47.790Z,2.67
2018-05-26T14:42:14.087Z,2.97
2018-05-26T14:44:40.306Z,3.17
2018-05-26T14:47:06.670Z,3.00
2018-05-26T14:49:32.934Z,2.63
2018-05-26T14:51:59.885Z,3.47
2018-05-26T14:54:27.989Z,3.50
2018-05-26T14:56:54.226Z,3.00
2018-05-26T14:59:20.454Z,2.90
2018-05-26T15:01:47.423Z,3.33
2018-05-26T15:04:13.663Z,3.77
2018-05-26T15:06:40.020Z,3.20
2018-05-26T15:09:06.265Z,3.47
2018-05-26T15:11:32.481Z,3.60
2018-05-26T15:13:58.751Z,4.20
2018-05-26T15:16:24.984Z,4.43
2018-05-26T15:18:51.234Z,4.10
2018-05-26T15:21:17.457Z,3.27
2018-05-26T15:23:43.703Z,3.40
2018-05-26T15:26:09.968Z,3.23
2018-05-26T15:28:36.199Z,3.23
2018-05-26T15:31:02.471Z,3.17
2018-05-26T15:33:28.721Z,3.53
2018-05-26T15:35:54.975Z,3.67
2018-05-26T15:38:21.222Z,3.20
2018-05-26T15:40:47.444Z,3.03
2018-05-26T15:43:13.710Z,3.00
2018-05-26T15:45:39.965Z,3.10
2018-05-26T15:48:11.046Z,3.00
2018-05-26T15:50:37.277Z,3.00
2018-05-26T15:53:03.512Z,3.00
2018-05-26T15:55:29.904Z,2.87
2018-05-26T15:57:56.133Z,2.80
2018-05-26T16:00:22.385Z,2.50
2018-05-26T16:02:48.614Z,2.53
2018-05-26T16:05:14.844Z,2.90
2018-05-26T16:07:41.201Z,3.10
2018-05-26T16:10:07.459Z,2.63
2018-05-26T16:12:33.658Z,2.73
2018-05-26T16:14:59.888Z,3.10
2018-05-26T16:17:26.097Z,2.60
2018-05-26T16:19:52.355Z,2.53
2018-05-26T16:22:18.609Z,2.93
2018-05-26T16:24:44.847Z,2.50
2018-05-26T16:27:11.074Z,2.90
2018-05-26T16:29:38.155Z,2.50
2018-05-26T16:32:04.369Z,3.50
2018-05-26T16:34:31.385Z,2.73
2018-05-26T16:36:57.610Z,2.60
2018-05-26T16:39:23.848Z,3.00
2018-05-26T16:41:50.105Z,3.07
2018-05-26T16:44:16.330Z,2.60
2018-05-26T16:46:42.566Z,3.00
2018-05-26T16:49:09.127Z,3.60
2018-05-26T16:51:35.369Z,3.20
2018-05-26T16:54:01.603Z,2.70
2018-05-26T16:56:27.808Z,2.10
2018-05-26T16:58:54.083Z,2.33
2018-05-26T17:01:20.302Z,2.40
2018-05-26T17:03:46.517Z,2.90
2018-05-26T17:06:12.761Z,2.27
2018-05-26T17:08:39.732Z,3.27
2018-05-26T17:11:06.182Z,2.43
2018-05-26T17:13:32.409Z,2.70
2018-05-26T17:15:59.375Z,2.50
2018-05-26T17:18:25.592Z,2.50
2018-05-26T17:20:52.566Z,3.17
2018-05-26T17:23:18.821Z,2.90
2018-05-26T17:25:45.062Z,3.30
2018-05-26T17:28:11.287Z,2.73
2018-05-26T17:30:37.627Z,3.20
2018-05-26T17:33:04.582Z,3.83
2018-05-26T17:35:31.577Z,3.47
2018-05-26T17:37:57.790Z,3.40
2018-05-26T17:40:24.009Z,2.70
2018-05-26T17:42:50.257Z,3.00
2018-05-26T17:45:16.503Z,3.43
2018-05-26T17:47:42.908Z,3.43
2018-05-26T17:50:09.340Z,3.20
2018-05-26T17:52:35.571Z,3.60
2018-05-26T17:55:01.841Z,3.03
2018-05-26T17:57:28.796Z,3.40
2018-05-26T17:59:55.047Z,3.73
2018-05-26T18:02:21.270Z,3.03
2018-05-26T18:04:47.489Z,2.83
2018-05-26T18:07:13.724Z,3.70
2018-05-26T18:09:39.936Z,3.83
2018-05-26T18:12:06.219Z,3.57
2018-05-26T18:14:32.437Z,3.70
2018-05-26T18:16:58.634Z,3.73
2018-05-26T18:19:24.889Z,3.30
2018-05-26T18:21:51.139Z,4.20
2018-05-26T18:24:17.418Z,4.40
2018-05-26T18:26:43.640Z,3.50
2018-05-26T18:29:09.867Z,3.70
2018-05-26T18:31:36.888Z,3.67
2018-05-26T18:34:03.134Z,4.13
2018-05-26T18:36:29.382Z,3.90
2018-05-26T18:38:55.617Z,3.40
2018-05-26T18:41:21.874Z,3.73
2018-05-26T18:43:48.855Z,3.37
2018-05-26T18:46:15.070Z,3.57
2018-05-26T18:48:42.088Z,3.57
2018-05-26T18:51:09.108Z,3.70
2018-05-26T18:53:35.339Z,3.33
2018-05-26T18:56:02.308Z,4.50
2018-05-26T18:58:28.548Z,3.57
2018-05-26T19:00:54.817Z,4.10
2018-05-26T19:03:21.050Z,3.63
2018-05-26T19:05:47.245Z,3.93
2018-05-26T19:08:14.222Z,3.80
2018-05-26T19:10:40.478Z,4.83
2018-05-26T19:13:06.683Z,3.60
2018-05-26T19:15:33.670Z,3.43
2018-05-26T19:17:59.906Z,4.00
2018-05-26T19:20:26.189Z,3.60
2018-05-26T19:22:52.461Z,3.90
2018-05-26T19:25:19.425Z,3.47
2018-05-26T19:27:46.385Z,4.53
2018-05-26T19:30:13.407Z,4.07
2018-05-26T19:32:39.636Z,3.87
2018-05-26T19:35:05.887Z,4.17
2018-05-26T19:37:32.137Z,3.87
2018-05-26T19:39:58.401Z,4.20
2018-05-26T19:42:25.391Z,4.70
2018-05-26T19:44:51.618Z,5.20
2018-05-26T19:47:17.882Z,4.77
2018-05-26T19:49:44.112Z,4.60
2018-05-26T19:52:10.561Z,4.20
2018-05-26T19:54:36.792Z,4.33
2018-05-26T19:57:03.114Z,3.73
2018-05-26T19:59:30.087Z,4.10
2018-05-26T20:01:57.070Z,3.80
2018-05-26T20:04:23.305Z,4.60
2018-05-26T20:06:49.554Z,4.70
2018-05-26T20:09:15.791Z,4.30
2018-05-26T20:11:42.064Z,4.47
2018-05-26T20:14:08.298Z,4.23
2018-05-26T20:16:34.521Z,4.10
2018-05-26T20:19:00.780Z,5.10
2018-05-26T20:21:27.012Z,4.20
2018-05-26T20:23:53.258Z,4.70
2018-05-26T20:26:19.463Z,4.30
2018-05-26T20:28:45.678Z,5.00
2018-05-26T20:31:12.053Z,5.03
2018-05-26T20:33:39.000Z,5.30
2018-05-26T20:36:05.272Z,4.53
2018-05-26T20:38:31.491Z,4.47
2018-05-26T20:40:57.724Z,5.20
2018-05-26T20:43:23.955Z,4.53
2018-05-26T20:45:50.531Z,4.37
2018-05-26T20:48:16.810Z,5.23
2018-05-26T20:50:43.034Z,5.10
2018-05-26T20:53:09.270Z,5.40
2018-05-26T20:55:35.495Z,5.37
2018-05-26T20:58:01.736Z,4.80
2018-05-26T21:00:27.984Z,6.37
2018-05-26T21:02:54.209Z,5.80
2018-05-26T21:05:20.442Z,5.87
2018-05-26T21:07:46.689Z,6.30
2018-05-26T21:10:12.903Z,6.10
2018-05-26T21:12:39.161Z,5.53
2018-05-26T21:15:05.442Z,5.40
2018-05-26T21:17:31.639Z,5.27
2018-05-26T21:19:57.884Z,5.30
2018-05-26T21:22:24.082Z,4.53
2018-05-26T21:24:50.333Z,4.47
2018-05-26T21:27:16.565Z,4.80
2018-05-26T21:29:42.885Z,4.83
2018-05-26T21:32:09.124Z,5.20
2018-05-26T21:34:35.362Z,4.80
2018-05-26T21:37:01.659Z,4.70
2018-05-26T21:39:27.887Z,5.37
2018-05-26T21:41:54.129Z,5.10
2018-05-26T21:44:21.143Z,5.10
2018-05-26T21:46:47.361Z,5.37
2018-05-26T21:54:37.902Z,5.33
2018-05-26T21:57:04.156Z,4.90
2018-05-26T21:59:30.376Z,4.50
2018-05-26T22:01:56.648Z,5.80
2018-05-26T22:04:22.874Z,5.23
2018-05-26T22:06:49.083Z,5.10
2018-05-26T22:09:15.315Z,5.80
2018-05-26T22:11:41.551Z,5.07
2018-05-26T22:14:07.807Z,5.30
2018-05-26T22:16:34.026Z,4.80
2018-05-26T22:19:00.235Z,5.53
2018-05-26T22:21:26.467Z,5.77
2018-05-26T22:23:52.691Z,5.40
2018-05-26T22:26:18.930Z,5.57
2018-05-26T22:28:46.003Z,5.53
2018-05-26T22:31:12.316Z,5.33
2018-05-26T22:33:39.272Z,5.60
2018-05-26T22:36:05.501Z,5.47
2018-05-26T22:38:31.727Z,4.37
2018-05-26T22:40:57.990Z,5.27
2018-05-26T22:43:24.194Z,6.10
2018-05-26T22:45:50.426Z,6.10
2018-05-26T22:48:16.647Z,6.30
2018-05-26T22:50:42.887Z,5.40
2018-05-26T22:53:09.592Z,6.17
2018-05-26T22:55:35.824Z,6.50
2018-05-26T22:58:02.055Z,5.93
2018-05-26T23:00:28.299Z,5.70
2018-05-26T23:02:54.522Z,6.40
2018-05-26T23:05:20.794Z,5.57
2018-05-26T23:07:46.993Z,6.60
2018-05-26T23:10:16.125Z,7.23
2018-05-26T23:12:42.410Z,7.97
2018-05-26T23:15:08.640Z,6.97
2018-05-26T23:17:35.896Z,6.87
2018-05-26T23:20:02.138Z,8.73
2018-05-26T23:22:28.418Z,9.67
2018-05-26T23:24:55.887Z,7.60
2018-05-26T23:27:22.263Z,8.00
2018-05-26T23:29:48.577Z,7.30
2018-05-26T23:32:15.867Z,6.30
2018-05-26T23:34:42.507Z,7.60
2018-05-26T23:37:09.563Z,7.67
2018-05-26T23:39:35.803Z,7.90
2018-05-26T23:42:02.042Z,7.50
2018-05-26T23:44:28.313Z,7.53
2018-05-26T23:46:55.534Z,7.97
2018-05-26T23:49:21.778Z,7.93
2018-05-26T23:51:47.991Z,7.50
2018-05-26T23:54:15.207Z,8.20
2018-05-26T23:56:41.465Z,9.17
2018-05-26T23:59:07.696Z,8.37
